Time;durP1;ratioP1;P1;durP2;ratioP2;P2;SDS_P1;SDS_P2;PMS_P1;PMS_P2;Temp;Humidity;BMP_temperature;BMP_pressure;BME280_temperature;BME280_humidity;BME280_pressure;Samples;Min_cycle;Max_cycle;Signal;HPM_P1;HPM_P2
2021/12/16 00:08:05;;;;;;;31.57;18.70;;;;;;;-0.10;100.00;100483.63;1793070;80;20960;-67
2021/12/16 00:10:40;;;;;;;41.10;20.32;;;;;;;-0.11;100.00;100494.70;1761174;81;20995;-66
2021/12/16 00:34:57;;;;;;;39.25;20.62;;;;;;;-0.37;100.00;100481.19;1792906;80;21682;-67
2021/12/16 00:37:26;;;;;;;34.65;19.32;;;;;;;-0.40;100.00;100489.77;1760227;81;20991;-67
2021/12/16 00:39:53;;;;;;;40.45;20.82;;;;;;;-0.37;100.00;100474.42;1770571;80;20950;-67
2021/12/16 00:42:37;;;;;;;39.53;19.75;;;;;;;-0.33;100.00;100479.70;1765005;81;21542;-68
2021/12/16 00:47:31;;;;;;;35.30;18.57;;;;;;;-0.27;100.00;100470.67;1761318;81;21091;-69
2021/12/16 00:50:03;;;;;;;38.55;18.75;;;;;;;-0.28;100.00;100466.32;1769303;80;20911;-67
2021/12/16 00:55:46;;;;;;;35.95;18.42;;;;;;;-0.26;100.00;100464.19;1793013;79;20860;-67
2021/12/16 00:57:49;;;;;;;37.80;19.20;;;;;;;-0.24;100.00;100455.88;1735531;81;21927;-67
2021/12/16 01:00:16;;;;;;;38.28;20.17;;;;;;;-0.22;100.00;100454.28;1765103;80;20979;-68
2021/12/16 01:39:43;;;;;;;47.78;21.93;;;;;;;-0.33;100.00;100418.77;1765516;81;20984;-68
2021/12/16 01:42:18;;;;;;;44.93;21.48;;;;;;;-0.33;100.00;100416.56;1733972;82;20952;-68
2021/12/16 01:47:01;;;;;;;52.03;23.27;;;;;;;-0.30;100.00;100421.53;1735238;82;20897;-67
2021/12/16 01:57:37;;;;;;;52.00;23.57;;;;;;;-0.28;100.00;100417.56;1734669;82;20881;-66
2021/12/16 02:00:07;;;;;;;55.50;24.07;;;;;;;-0.24;100.00;100417.94;1764060;80;21045;-66
2021/12/16 02:02:45;;;;;;;55.33;23.57;;;;;;;-0.26;100.00;100418.14;1734327;82;20985;-67
2021/12/16 02:05:28;;;;;;;55.12;24.40;;;;;;;-0.28;100.00;100420.27;1765268;80;21171;-66
2021/12/16 02:08:17;;;;;;;46.80;22.98;;;;;;;-0.26;100.00;100426.81;1717257;82;20972;-67
2021/12/16 02:10:35;;;;;;;51.75;23.67;;;;;;;-0.26;100.00;100424.11;1744174;81;21012;-66
2021/12/16 02:13:19;;;;;;;60.63;24.67;;;;;;;-0.28;100.00;100426.20;1734765;82;21019;-66
2021/12/16 02:37:23;;;;;;;62.60;27.07;;;;;;;-0.15;100.00;100404.89;1765878;81;20981;-68
2021/12/16 02:39:53;;;;;;;57.90;26.48;;;;;;;-0.10;100.00;100386.63;1735491;82;20958;-68
2021/12/16 02:42:31;;;;;;;58.63;26.75;;;;;;;-0.06;100.00;100385.94;1765533;81;20953;-68
2021/12/16 02:50:25;;;;;;;65.62;28.12;;;;;;;-0.11;100.00;100370.05;1718482;82;21020;-68
2021/12/16 02:52:52;;;;;;;73.50;28.12;;;;;;;-0.14;100.00;100364.57;1765821;81;20854;-68
2021/12/16 02:55:22;;;;;;;69.95;28.10;;;;;;;-0.15;100.00;100357.48;1735510;82;20897;-68
2021/12/16 02:57:59;;;;;;;66.72;29.32;;;;;;;-0.17;99.98;100352.84;1747882;81;21005;-69
2021/12/16 03:00:21;;;;;;;78.50;31.05;;;;;;;-0.20;99.92;100358.69;1734290;82;20881;-67
2021/12/16 03:02:52;;;;;;;78.65;30.72;;;;;;;-0.21;100.00;100363.81;1765759;81;20992;-68
2021/12/16 03:05:22;;;;;;;;;;;;;;;-0.19;100.00;100373.39;1720977;82;20997;-68
2021/12/16 03:07:49;;;;;;;65.45;26.57;;;;;;;-0.18;100.00;100368.78;1750872;82;20143;-68
2021/12/16 03:13:21;;;;;;;69.55;28.23;;;;;;;-0.19;100.00;100370.68;1750716;82;20881;-68
2021/12/16 03:15:56;;;;;;;68.60;28.10;;;;;;;-0.17;100.00;100367.74;1733054;82;21008;-67
2021/12/16 03:21:03;;;;;;;64.82;26.93;;;;;;;-0.14;100.00;100367.28;1735170;82;21076;-68
2021/12/16 03:31:41;;;;;;;70.35;29.30;;;;;;;-0.13;100.00;100368.92;1733047;82;21402;-68
2021/12/16 03:36:51;;;;;;;62.05;27.70;;;;;;;-0.11;100.00;100362.75;1735436;82;21803;-67
2021/12/16 03:39:19;;;;;;;63.55;25.62;;;;;;;-0.08;100.00;100360.94;1748014;81;21017;-68
2021/12/16 03:41:47;;;;;;;69.47;28.20;;;;;;;-0.04;100.00;100368.09;1735161;82;21011;-68
2021/12/16 03:44:26;;;;;;;66.53;25.65;;;;;;;-0.06;100.00;100364.25;1748014;81;20942;-68
2021/12/16 03:46:49;;;;;;;63.23;26.20;;;;;;;-0.04;100.00;100366.73;1734698;82;21579;-68
2021/12/16 03:49:21;;;;;;;73.60;28.80;;;;;;;-0.04;100.00;100363.50;1765482;81;21504;-67
2021/12/16 03:51:58;;;;;;;70.32;29.85;;;;;;;-0.09;99.79;100359.30;1718719;82;20953;-68
2021/12/16 03:54:31;;;;;;;67.42;26.87;;;;;;;-0.10;99.83;100354.91;1764703;81;21438;-67
2021/12/16 03:57:06;;;;;;;64.53;27.20;;;;;;;-0.12;99.79;100348.92;1737224;81;21004;-67
2021/12/16 03:59:38;;;;;;;55.90;22.13;;;;;;;-0.12;99.76;100351.63;1793167;80;21527;-68
2021/12/16 04:02:17;;;;;;;73.02;29.75;;;;;;;-0.14;99.63;100341.54;1760554;81;22147;-67
2021/12/16 04:04:48;;;;;;;85.55;29.07;;;;;;;-0.17;99.63;100326.55;1793034;79;21410;-67
2021/12/16 04:07:18;;;;;;;71.77;29.48;;;;;;;-0.17;99.61;100325.74;1739706;81;20956;-68
2021/12/16 04:09:54;;;;;;;74.58;28.15;;;;;;;-0.19;99.70;100334.10;1764316;80;21011;-68
2021/12/16 04:12:25;;;;;;;69.25;28.80;;;;;;;-0.18;99.84;100334.91;1739712;81;20948;-68
2021/12/16 04:14:59;;;;;;;64.22;26.93;;;;;;;-0.17;99.82;100327.91;1770413;80;21026;-68
2021/12/16 04:17:30;;;;;;;56.08;24.82;;;;;;;-0.19;99.77;100338.16;1761470;81;20896;-68
2021/12/16 04:20:02;;;;;;;72.20;28.00;;;;;;;-0.18;99.78;100328.14;1770524;80;21000;-68
2021/12/16 04:22:36;;;;;;;60.30;27.52;;;;;;;-0.20;99.87;100329.72;1761333;81;21672;-68
2021/12/16 04:25:15;;;;;;;66.17;28.15;;;;;;;-0.15;99.98;100332.58;1792857;79;20872;-68
2021/12/16 04:27:51;;;;;;;65.75;26.77;;;;;;;-0.14;99.96;100329.34;1754735;81;21145;-67
2021/12/16 04:30:19;;;;;;;71.20;28.87;;;;;;;-0.14;99.79;100326.09;1793021;80;21488;-68
2021/12/16 04:32:48;;;;;;;62.70;27.75;;;;;;;-0.15;99.77;100310.90;1761436;81;21516;-67
2021/12/16 04:35:15;;;;;;;64.27;27.20;;;;;;;-0.14;99.70;100314.45;1792669;80;20923;-69
2021/12/16 04:37:45;;;;;;;61.88;26.42;;;;;;;-0.17;99.58;100308.13;1761831;81;20924;-67
2021/12/16 04:40:19;;;;;;;69.07;28.00;;;;;;;-0.20;99.63;100310.75;1769279;80;21794;-68
2021/12/16 04:42:48;;;;;;;67.35;26.60;;;;;;;-0.21;99.62;100302.34;1761441;81;20975;-69
2021/12/16 04:45:18;;;;;;;65.28;27.90;;;;;;;-0.23;99.70;100293.61;1770526;80;21512;-68
2021/12/16 04:47:47;;;;;;;67.70;27.95;;;;;;;-0.22;99.81;100291.73;1761721;81;21405;-68
2021/12/16 04:50:16;;;;;;;69.03;29.85;;;;;;;-0.23;99.76;100290.90;1770232;80;20964;-67
2021/12/16 04:52:45;;;;;;;67.60;28.45;;;;;;;-0.22;99.80;100293.89;1761639;81;21982;-68
2021/12/16 04:55:20;;;;;;;64.85;27.32;;;;;;;-0.21;99.92;100294.73;1770500;80;20987;-68
2021/12/16 04:57:54;;;;;;;60.00;25.43;;;;;;;-0.18;99.96;100295.63;1761423;81;20991;-67
2021/12/16 05:00:27;;;;;;;64.25;27.98;;;;;;;-0.18;99.88;100292.91;1766300;80;21489;-68
2021/12/16 05:02:56;;;;;;;68.67;28.70;;;;;;;-0.17;99.91;100297.30;1737999;81;20909;-69
2021/12/16 05:05:33;;;;;;;64.80;27.93;;;;;;;-0.16;99.95;100298.42;1791186;79;21410;-68
2021/12/16 05:08:11;;;;;;;61.45;26.48;;;;;;;-0.14;99.97;100298.19;1761336;81;20979;-69
2021/12/16 05:10:56;;;;;;;68.35;28.70;;;;;;;-0.13;99.98;100295.77;1790246;80;20936;-68
2021/12/16 05:13:31;;;;;;;72.80;29.75;;;;;;;-0.13;99.97;100295.25;1761532;81;20943;-67
2021/12/16 05:16:05;;;;;;;78.37;30.15;;;;;;;-0.10;100.00;100293.95;1792872;79;21457;-68
2021/12/16 05:18:54;;;;;;;68.52;28.05;;;;;;;-0.08;99.95;100290.48;1739041;81;21136;-67
2021/12/16 05:24:25;;;;;;;80.75;29.82;;;;;;;-0.08;99.80;100302.68;1762325;81;20948;-69
2021/12/16 05:26:47;;;;;;;80.70;32.65;;;;;;;-0.09;99.65;100302.91;1768680;80;20908;-68
2021/12/16 05:29:15;;;;;;;77.95;30.12;;;;;;;-0.13;99.65;100291.19;1761707;81;20884;-69
2021/12/16 05:31:44;;;;;;;69.70;29.00;;;;;;;-0.10;99.66;100299.37;1770200;80;21396;-69
2021/12/16 05:34:12;;;;;;;78.95;29.00;;;;;;;-0.11;99.67;100304.50;1739578;81;20975;-68
2021/12/16 05:36:41;;;;;;;68.12;27.65;;;;;;;-0.11;99.57;100309.08;1792694;79;20928;-67
2021/12/16 05:39:09;;;;;;;73.15;30.85;;;;;;;-0.13;99.50;100316.92;1739737;81;20955;-69
2021/12/16 05:41:38;;;;;;;73.72;30.48;;;;;;;-0.14;99.46;100314.45;1792424;79;21007;-69
2021/12/16 05:44:06;;;;;;;77.27;32.70;;;;;;;-0.16;99.28;100309.25;1765263;81;21960;-68
2021/12/16 05:46:37;;;;;;;74.20;30.80;;;;;;;-0.20;99.21;100303.98;1792774;79;21022;-69
2021/12/16 05:49:12;;;;;;;75.45;32.30;;;;;;;-0.23;99.17;100303.61;1761497;81;20877;-68
2021/12/16 05:51:44;;;;;;;68.75;29.32;;;;;;;-0.23;99.24;100303.09;1791664;79;21404;-68
2021/12/16 05:54:11;;;;;;;73.40;29.23;;;;;;;-0.25;99.29;100302.48;1761718;81;21031;-69
2021/12/16 05:56:40;;;;;;;70.90;29.90;;;;;;;-0.26;99.33;100307.61;1792364;79;21141;-68
2021/12/16 05:59:08;;;;;;;73.92;30.30;;;;;;;-0.25;99.41;100308.73;1742363;81;21016;-68
2021/12/16 06:01:39;;;;;;;69.20;29.18;;;;;;;-0.23;99.41;100300.90;1765573;81;21012;-67
2021/12/16 06:04:06;;;;;;;78.83;33.28;;;;;;;-0.22;99.38;100295.25;1718347;82;20965;-68
2021/12/16 06:06:36;;;;;;;69.80;30.52;;;;;;;-0.22;99.37;100293.89;1748095;81;20941;-68
2021/12/16 06:09:07;;;;;;;68.90;29.18;;;;;;;-0.22;99.31;100300.67;1718542;82;21865;-68
2021/12/16 06:11:40;;;;;;;74.87;29.82;;;;;;;-0.22;99.29;100306.63;1765677;81;21557;-68
2021/12/16 06:14:17;;;;;;;72.17;29.10;;;;;;;-0.21;99.35;100302.86;1735287;82;21377;-69
2021/12/16 06:27:50;;;;;;;61.60;26.70;;;;;;;-0.19;99.29;100284.50;1765027;80;21474;-68
2021/12/16 06:30:22;;;;;;;54.70;25.30;;;;;;;-0.19;99.32;100285.85;1735265;82;20972;-68
2021/12/16 06:32:53;;;;;;;69.03;28.90;;;;;;;-0.17;99.27;100266.14;1763650;80;20934;-68
2021/12/16 06:35:19;;;;;;;56.55;25.55;;;;;;;-0.18;99.11;100261.23;1694568;82;21278;-68
2021/12/16 06:37:48;;;;;;;61.40;27.27;;;;;;;-0.19;99.11;100251.47;1765500;81;20925;-68
2021/12/16 06:40:17;;;;;;;63.50;27.20;;;;;;;-0.17;99.15;100247.98;1735277;82;21395;-67
2021/12/16 06:43:05;;;;;;;62.10;27.60;;;;;;;-0.15;99.03;100252.64;1764712;80;20917;-67
2021/12/16 06:45:39;;;;;;;59.95;28.17;;;;;;;-0.15;99.01;100249.94;1735686;82;20862;-67
2021/12/16 06:48:12;;;;;;;61.23;26.82;;;;;;;-0.12;99.04;100243.25;1765709;81;21035;-67
2021/12/16 06:50:47;;;;;;;56.02;24.32;;;;;;;-0.10;99.04;100247.88;1735032;82;20980;-67
2021/12/16 06:53:12;;;;;;;56.63;24.23;;;;;;;-0.09;98.92;100246.01;1764986;80;20965;-67
2021/12/16 06:55:58;;;;;;;;;;;;;;;-0.08;98.97;100253.06;1737856;82;21481;-68
2021/12/16 06:58:30;;;;;;;58.28;25.52;;;;;;;-0.06;98.97;100255.02;1734258;81;20162;-67
2021/12/16 07:01:01;;;;;;;54.25;23.52;;;;;;;-0.04;99.03;100252.40;1761841;81;21141;-68
2021/12/16 07:03:22;;;;;;;63.13;26.35;;;;;;;-0.03;98.96;100249.14;1760285;81;21507;-66
2021/12/16 07:05:56;;;;;;;61.28;25.40;;;;;;;-0.02;98.85;100246.20;1761682;81;20912;-67
2021/12/16 07:08:25;;;;;;;64.00;27.37;;;;;;;-0.02;98.60;100238.61;1792969;79;21413;-67
2021/12/16 07:10:55;;;;;;;59.93;27.52;;;;;;;-0.04;98.46;100240.20;1761662;81;20984;-67
2021/12/16 07:13:35;;;;;;;60.30;27.00;;;;;;;-0.05;98.49;100238.53;1792992;79;22201;-68
2021/12/16 07:15:58;;;;;;;62.55;26.07;;;;;;;-0.06;98.42;100237.41;1738983;81;21483;-67
2021/12/16 07:18:25;;;;;;;57.83;24.20;;;;;;;-0.08;98.40;100234.94;1792861;79;20871;-67
2021/12/16 07:20:51;;;;;;;57.20;24.47;;;;;;;-0.08;98.46;100236.29;1761563;81;20915;-67
2021/12/16 07:23:18;;;;;;;57.05;25.65;;;;;;;-0.08;98.48;100234.94;1792925;80;20984;-68
2021/12/16 07:25:46;;;;;;;56.10;26.45;;;;;;;-0.06;98.51;100234.70;1739957;81;21783;-69
2021/12/16 07:28:13;;;;;;;51.20;23.65;;;;;;;-0.05;98.51;100233.11;1792859;79;20877;-66
2021/12/16 07:30:44;;;;;;;55.48;24.63;;;;;;;-0.02;98.58;100227.22;1739994;81;20928;-67
2021/12/16 07:33:17;;;;;;;58.52;26.90;;;;;;;-0.01;98.50;100227.54;1792769;79;21064;-69
2021/12/16 07:35:45;;;;;;;57.40;24.37;;;;;;;0.00;98.50;100220.24;1740014;81;21388;-67
2021/12/16 07:38:16;;;;;;;53.13;25.57;;;;;;;0.02;98.41;100216.75;1793257;79;21413;-67
2021/12/16 07:40:54;;;;;;;58.70;26.07;;;;;;;0.03;98.41;100213.52;1761770;81;21527;-67
2021/12/16 07:46:09;;;;;;;60.65;27.70;;;;;;;0.07;98.42;100208.75;1761890;81;21039;-67
2021/12/16 07:48:39;;;;;;;59.53;26.75;;;;;;;0.08;98.42;100196.87;1793315;79;21460;-67
2021/12/16 07:51:06;;;;;;;58.90;26.17;;;;;;;0.09;98.37;100200.38;1761551;81;21540;-68
2021/12/16 07:53:34;;;;;;;60.38;27.70;;;;;;;0.08;98.37;100196.87;1792663;79;20984;-68
2021/12/16 07:56:04;;;;;;;61.77;27.58;;;;;;;0.11;98.39;100202.34;1761446;81;20999;-68
2021/12/16 07:58:32;;;;;;;54.80;24.82;;;;;;;0.10;98.37;100186.59;1789418;80;20988;-68
2021/12/16 08:00:58;;;;;;;53.65;24.37;;;;;;;0.11;98.43;100186.91;1735189;82;20932;-66
2021/12/16 08:03:33;;;;;;;55.17;24.92;;;;;;;0.12;98.35;100191.78;1746735;81;21016;-68
2021/12/16 08:05:59;;;;;;;52.78;24.92;;;;;;;0.13;98.44;100190.73;1734596;82;38236;-67
2021/12/16 08:08:29;;;;;;;53.28;23.83;;;;;;;0.14;98.45;100188.86;1765244;81;21481;-68
2021/12/16 08:11:00;;;;;;;55.33;24.60;;;;;;;0.14;98.47;100189.67;1718245;82;20941;-67
2021/12/16 08:13:29;;;;;;;47.93;23.42;;;;;;;0.15;98.38;100189.98;1765365;81;20889;-67
2021/12/16 08:15:59;;;;;;;54.03;24.80;;;;;;;0.14;98.32;100193.73;1735336;82;21121;-67
2021/12/16 08:18:29;;;;;;;55.60;24.45;;;;;;;0.15;98.45;100195.92;1765198;80;20929;-68
2021/12/16 08:20:57;;;;;;;50.78;24.57;;;;;;;0.14;98.47;100195.09;1735154;82;21486;-67
2021/12/16 08:23:26;;;;;;;60.67;26.02;;;;;;;0.15;98.54;100194.05;1765476;81;20877;-67
2021/12/16 08:25:53;;;;;;;53.70;25.12;;;;;;;0.17;98.65;100197.88;1717819;82;21311;-68
2021/12/16 08:28:23;;;;;;;50.90;24.90;;;;;;;0.18;98.75;100196.28;1765356;81;21770;-67
2021/12/16 08:30:52;;;;;;;55.98;24.20;;;;;;;0.20;98.82;100188.75;1718741;82;20932;-68
2021/12/16 08:33:20;;;;;;;52.60;24.20;;;;;;;0.21;98.82;100187.68;1765721;81;21004;-67
2021/12/16 08:35:50;;;;;;;52.70;24.95;;;;;;;0.24;98.89;100183.14;1718152;82;20957;-68
2021/12/16 08:38:21;;;;;;;49.50;25.12;;;;;;;0.27;98.87;100178.31;1765793;81;20953;-66
2021/12/16 08:40:51;;;;;;;60.05;26.05;;;;;;;0.29;98.76;100181.62;1718384;82;21278;-68
2021/12/16 08:43:20;;;;;;;55.03;26.25;;;;;;;0.29;98.85;100174.84;1765559;81;21306;-67
2021/12/16 08:45:47;;;;;;;54.63;24.85;;;;;;;0.31;98.91;100172.18;1735252;82;21568;-67
2021/12/16 08:48:15;;;;;;;65.37;29.63;;;;;;;0.32;98.91;100171.66;1765615;81;21044;-68
2021/12/16 08:50:46;;;;;;;55.30;25.37;;;;;;;0.33;99.00;100161.09;1710465;82;20937;-68
2021/12/16 08:53:13;;;;;;;54.58;26.80;;;;;;;0.35;99.09;100158.98;1765790;81;21075;-67
2021/12/16 08:55:43;;;;;;;52.03;26.02;;;;;;;0.37;99.16;100154.15;1735443;82;20985;-68
2021/12/16 08:58:12;;;;;;;51.55;25.17;;;;;;;0.39;99.24;100142.55;1748121;81;20995;-67
2021/12/16 09:00:46;;;;;;;50.80;24.87;;;;;;;0.42;99.26;100142.06;1735170;81;21480;-68
2021/12/16 09:06:06;;;;;;;54.00;24.15;;;;;;;0.48;99.32;100130.26;1735088;82;20921;-68
2021/12/16 09:08:37;;;;;;;44.65;23.10;;;;;;;0.48;99.26;100132.97;1765529;81;21395;-69
2021/12/16 09:11:09;;;;;;;50.78;24.85;;;;;;;0.50;99.29;100125.11;1718364;82;20997;-68
2021/12/16 09:13:41;;;;;;;47.38;24.52;;;;;;;0.51;99.36;100120.84;1765571;81;21009;-69
2021/12/16 09:16:13;;;;;;;46.98;23.10;;;;;;;0.53;99.33;100118.69;1743131;82;21023;-69
2021/12/16 09:18:43;;;;;;;52.25;25.40;;;;;;;0.54;99.40;100112.74;1765812;81;20933;-68
2021/12/16 09:21:18;;;;;;;54.15;24.77;;;;;;;0.56;99.49;100112.78;1735382;82;20984;-68
2021/12/16 09:23:48;;;;;;;48.38;24.20;;;;;;;0.59;99.63;100106.08;1765784;81;20993;-69
2021/12/16 09:26:18;;;;;;;49.63;25.27;;;;;;;0.63;99.52;100109.14;1734882;82;20979;-69
2021/12/16 09:28:46;;;;;;;48.02;23.60;;;;;;;0.64;99.52;100103.98;1765598;81;21052;-67
2021/12/16 09:31:17;;;;;;;52.67;25.05;;;;;;;0.65;99.52;100097.52;1718259;82;20997;-69
2021/12/16 09:33:50;;;;;;;48.90;23.12;;;;;;;0.66;99.58;100089.14;1765662;81;20912;-67
2021/12/16 09:36:24;;;;;;;50.58;26.02;;;;;;;0.68;99.59;100086.98;1735653;82;20988;-67
2021/12/16 09:38:53;;;;;;;49.33;26.85;;;;;;;0.70;99.51;100086.22;1765597;81;21024;-67
2021/12/16 09:41:21;;;;;;;50.20;23.90;;;;;;;0.71;99.59;100085.70;1735355;82;21453;-67
2021/12/16 09:43:50;;;;;;;48.85;24.65;;;;;;;0.71;99.56;100080.27;1765584;81;21457;-68
2021/12/16 09:46:23;;;;;;;52.67;25.32;;;;;;;0.72;99.61;100076.48;1735459;82;21004;-67
2021/12/16 09:48:52;;;;;;;46.08;25.30;;;;;;;0.74;99.72;100085.22;1765653;81;20981;-68
2021/12/16 09:51:23;;;;;;;50.80;24.77;;;;;;;0.77;99.81;100071.72;1718615;82;21004;-67
2021/12/16 09:53:56;;;;;;;50.58;25.77;;;;;;;0.78;99.65;100069.28;1765789;81;20984;-67
2021/12/16 09:56:27;;;;;;;43.15;23.80;;;;;;;0.78;99.59;100061.14;1735405;82;21156;-67
2021/12/16 09:58:57;;;;;;;62.45;26.97;;;;;;;0.78;99.59;100061.98;1723989;80;20977;-69
2021/12/16 10:01:24;;;;;;;46.08;23.95;;;;;;;0.80;99.69;100057.66;1761573;81;20848;-67
2021/12/16 10:04:00;;;;;;;57.98;26.90;;;;;;;0.79;99.76;100041.91;1792771;80;20884;-68
2021/12/16 10:06:27;;;;;;;49.77;24.90;;;;;;;0.81;99.84;100035.71;1761696;81;20944;-67
2021/12/16 10:09:00;;;;;;;49.23;24.23;;;;;;;0.83;99.96;100033.59;1793198;80;21547;-68
2021/12/16 10:11:31;;;;;;;51.75;23.22;;;;;;;0.86;99.98;100032.27;1761684;81;21547;-67
2021/12/16 10:14:48;;;;;;;46.33;24.60;;;;;;;0.87;99.99;100035.81;1793157;79;21492;-68
2021/12/16 10:19:20;;;;;;;40.38;21.93;;;;;;;0.90;100.00;100028.02;1793348;80;21030;-67
2021/12/16 10:21:54;;;;;;;45.98;24.60;;;;;;;0.94;100.00;100025.61;1761634;81;20995;-67
2021/12/16 10:24:27;;;;;;;52.13;25.52;;;;;;;0.94;100.00;100016.94;1792781;79;20955;-67
2021/12/16 10:27:13;;;;;;;50.60;24.10;;;;;;;0.95;100.00;100016.42;1761893;81;20960;-67
2021/12/16 10:29:55;;;;;;;51.48;24.43;;;;;;;0.97;100.00;100009.66;1792887;80;20984;-68
2021/12/16 10:32:43;;;;;;;47.50;25.35;;;;;;;1.00;100.00;100008.89;1764738;81;21039;-68
2021/12/16 10:35:18;;;;;;;48.85;24.55;;;;;;;1.01;100.00;100004.58;1792830;80;21551;-67
2021/12/16 10:37:54;;;;;;;49.48;25.30;;;;;;;1.02;100.00;99994.55;1761610;81;20944;-67
2021/12/16 10:40:44;;;;;;;43.50;23.87;;;;;;;1.04;100.00;99995.94;1793115;79;20861;-68
2021/12/16 10:43:16;;;;;;;46.53;25.10;;;;;;;1.07;100.00;99993.28;1760706;81;21006;-68
2021/12/16 10:45:51;;;;;;;51.60;26.37;;;;;;;1.08;100.00;99984.06;1791863;79;21402;-68
2021/12/16 10:48:35;;;;;;;48.92;25.80;;;;;;;1.11;100.00;99997.14;1761843;81;21116;-68
2021/12/16 10:51:12;;;;;;;50.40;25.82;;;;;;;1.14;100.00;99995.84;1792783;80;20925;-67
2021/12/16 10:54:09;;;;;;;45.60;24.15;;;;;;;1.16;100.00;99985.02;1761537;81;20998;-68
2021/12/16 10:56:53;;;;;;;42.70;23.10;;;;;;;1.19;100.00;99987.26;1792888;80;21009;-69
2021/12/16 10:59:37;;;;;;;52.55;26.77;;;;;;;1.23;100.00;99978.06;1761582;81;20935;-67
2021/12/16 11:02:11;;;;;;;46.75;24.20;;;;;;;1.26;100.00;99971.33;1770565;80;21437;-68
2021/12/16 11:04:53;;;;;;;52.30;25.80;;;;;;;1.30;100.00;99965.68;1761056;81;20935;-67
2021/12/16 11:07:31;;;;;;;47.13;24.40;;;;;;;1.34;100.00;99969.56;1770106;80;21532;-69
2021/12/16 11:10:14;;;;;;;52.95;23.27;;;;;;;1.38;100.00;99963.10;1761526;81;20896;-67
2021/12/16 11:12:59;;;;;;;44.80;24.65;;;;;;;1.40;100.00;99956.89;1792769;79;20908;-68
2021/12/16 11:15:45;;;;;;;;;;;;;;;1.43;100.00;99958.55;1764171;81;21405;-68
2021/12/16 11:18:28;;;;;;;48.45;24.82;;;;;;;1.47;100.00;99959.44;1792801;79;20088;-68
2021/12/16 11:21:05;;;;;;;45.28;25.37;;;;;;;1.48;100.00;99959.72;1740582;81;21022;-68
2021/12/16 11:23:41;;;;;;;45.38;22.65;;;;;;;1.51;100.00;99955.14;1784984;80;20997;-69
2021/12/16 11:26:10;;;;;;;51.15;26.50;;;;;;;1.53;100.00;99953.84;1809160;79;20905;-69
2021/12/16 11:28:44;;;;;;;47.73;25.17;;;;;;;1.56;100.00;99953.33;1761793;81;21103;-69
2021/12/16 11:31:22;;;;;;;49.55;24.90;;;;;;;1.58;100.00;99951.20;1792056;79;20936;-68
2021/12/16 11:33:56;;;;;;;47.78;25.00;;;;;;;1.60;100.00;99949.59;1759929;81;20892;-69
2021/12/16 11:36:32;;;;;;;51.88;27.48;;;;;;;1.61;100.00;99951.22;1760970;81;20956;-68
2021/12/16 11:39:04;;;;;;;49.38;25.45;;;;;;;1.62;100.00;99938.47;1748255;80;21006;-68
2021/12/16 11:41:38;;;;;;;50.48;26.12;;;;;;;1.64;100.00;99941.77;1756064;81;21090;-67
2021/12/16 11:44:23;;;;;;;53.78;26.70;;;;;;;1.65;100.00;99940.68;1758456;81;21418;-69
2021/12/16 11:47:14;;;;;;;53.80;27.62;;;;;;;1.67;100.00;99937.98;1755389;81;20991;-68
2021/12/16 11:49:48;;;;;;;49.15;27.70;;;;;;;1.66;100.00;99937.70;1753303;81;21003;-67
2021/12/16 11:52:20;;;;;;;53.17;27.90;;;;;;;1.67;100.00;99937.98;1781765;79;20922;-66
2021/12/16 11:54:54;;;;;;;51.68;27.73;;;;;;;1.67;100.00;99929.83;1741358;81;21431;-67
2021/12/16 11:57:54;;;;;;;56.60;27.82;;;;;;;1.69;100.00;99927.69;1781028;79;20926;-67
2021/12/16 12:00:44;;;;;;;52.75;26.73;;;;;;;1.72;100.00;99927.75;1741642;81;21095;-68
2021/12/16 12:03:14;;;;;;;55.48;28.70;;;;;;;1.72;100.00;99923.67;1801983;79;21484;-67
2021/12/16 12:05:46;;;;;;;59.50;28.05;;;;;;;1.72;100.00;99913.33;1767728;80;20993;-67
2021/12/16 12:08:23;;;;;;;53.98;28.47;;;;;;;1.72;100.00;99916.05;1788618;79;21822;-68
2021/12/16 12:11:30;;;;;;;53.40;27.17;;;;;;;1.73;100.00;99917.16;1786766;79;20992;-67
2021/12/16 12:14:02;;;;;;;54.65;28.35;;;;;;;1.76;100.00;99906.30;1725320;82;21588;-67
2021/12/16 12:16:41;;;;;;;51.63;27.32;;;;;;;1.76;100.00;99909.02;1757774;80;21007;-67
2021/12/16 12:19:22;;;;;;;64.03;30.85;;;;;;;1.77;100.00;99902.53;1761895;81;21520;-66
2021/12/16 12:21:57;;;;;;;64.03;30.15;;;;;;;1.78;100.00;99896.84;1793103;79;21163;-66
2021/12/16 12:24:42;;;;;;;62.88;31.52;;;;;;;1.77;100.00;99889.77;1760921;81;21097;-66
2021/12/16 12:27:15;;;;;;;57.95;29.87;;;;;;;1.75;100.00;99889.20;1788700;79;20984;-68
2021/12/16 12:29:57;;;;;;;67.80;33.18;;;;;;;1.76;100.00;99890.00;1765956;80;20995;-66
2021/12/16 12:32:34;;;;;;;63.15;30.77;;;;;;;1.76;100.00;99882.67;1782760;79;21083;-67
2021/12/16 12:35:21;;;;;;;62.50;31.02;;;;;;;1.77;100.00;99889.77;1775601;79;21017;-66
2021/12/16 12:37:51;;;;;;;66.42;30.65;;;;;;;1.77;100.00;99886.22;1791572;79;21052;-66
2021/12/16 12:40:37;;;;;;;65.72;30.48;;;;;;;1.76;100.00;99885.92;1783814;80;21579;-67
2021/12/16 12:43:05;;;;;;;73.87;33.75;;;;;;;1.75;100.00;99874.78;1788731;79;21063;-64
2021/12/16 12:45:38;;;;;;;76.53;34.08;;;;;;;1.75;100.00;99874.25;1792797;79;21580;-68
2021/12/16 12:48:13;;;;;;;65.05;32.35;;;;;;;1.75;100.00;99869.34;1784530;79;21149;-67
2021/12/16 12:50:43;;;;;;;77.00;34.15;;;;;;;1.73;100.00;99863.33;1780822;79;21016;-67
2021/12/16 12:53:18;;;;;;;78.85;33.95;;;;;;;1.74;100.00;99862.28;1770049;80;21003;-68
2021/12/16 12:55:46;;;;;;;75.40;33.58;;;;;;;1.74;100.00;99861.72;1797116;79;21479;-68
2021/12/16 12:58:19;;;;;;;73.52;32.15;;;;;;;1.76;100.00;99854.67;1788531;79;21485;-69
2021/12/16 13:00:59;;;;;;;74.30;33.33;;;;;;;1.78;100.00;99862.04;1778947;79;21091;-67
2021/12/16 13:03:37;;;;;;;73.42;34.45;;;;;;;1.78;100.00;99857.44;1775373;80;21127;-68
2021/12/16 13:06:09;;;;;;;73.05;33.13;;;;;;;1.79;100.00;99846.84;1761058;81;20988;-67
2021/12/16 13:08:45;;;;;;;70.28;32.33;;;;;;;1.80;100.00;99848.50;1786525;79;21004;-67
2021/12/16 13:11:22;;;;;;;79.05;34.73;;;;;;;1.83;100.00;99849.88;1797515;78;21059;-68
2021/12/16 13:14:39;;;;;;;81.37;35.92;;;;;;;1.85;100.00;99847.73;1784214;78;21629;-68
2021/12/16 13:17:19;;;;;;;80.92;35.85;;;;;;;1.84;100.00;99847.45;1784203;79;21516;-68
2021/12/16 13:28:14;;;;;;;87.87;35.70;;;;;;;1.84;100.00;99871.09;1796136;79;21146;-68
2021/12/16 13:30:50;;;;;;;84.00;35.50;;;;;;;1.84;100.00;99865.66;1791306;79;20985;-68
2021/12/16 13:33:20;;;;;;;88.30;36.65;;;;;;;1.85;100.00;99864.04;1797730;79;21043;-69
2021/12/16 13:36:00;;;;;;;102.22;35.08;;;;;;;1.85;100.00;99861.32;1796638;79;21575;-68
2021/12/16 13:38:22;;;;;;;88.67;36.03;;;;;;;1.86;100.00;99865.67;1784129;79;21020;-68
2021/12/16 13:40:51;;;;;;;92.97;38.17;;;;;;;1.88;100.00;99866.77;1788323;79;21190;-69
2021/12/16 13:43:23;;;;;;;83.35;37.30;;;;;;;1.87;100.00;99853.74;1788487;79;21001;-68
2021/12/16 13:46:50;;;;;;;90.35;37.88;;;;;;;1.88;100.00;99854.02;1777254;79;21001;-66
2021/12/16 13:49:14;;;;;;;91.40;35.13;;;;;;;1.89;100.00;99847.52;1760315;79;21361;-68
2021/12/16 14:03:29;;;;;;;89.07;36.60;;;;;;;1.90;100.00;99851.04;1773988;79;21013;-69
2021/12/16 14:06:13;;;;;;;88.27;36.88;;;;;;;1.90;100.00;99850.51;1736658;81;21119;-69
2021/12/16 14:08:37;;;;;;;81.55;35.48;;;;;;;1.90;100.00;99851.88;1772968;79;21104;-68
2021/12/16 14:12:03;;;;;;;89.87;35.75;;;;;;;1.92;100.00;99859.23;1773887;79;21308;-67
2021/12/16 14:25:35;;;;;;;77.35;31.87;;;;;;;1.97;100.00;99857.64;1770481;80;20986;-67
2021/12/16 14:37:13;;;;;;;61.30;29.72;;;;;;;2.02;100.00;99858.53;1772723;79;21100;-67
2021/12/16 14:39:58;;;;;;;54.30;26.42;;;;;;;2.05;100.00;99857.19;1757386;80;21029;-67
2021/12/16 14:51:09;;;;;;;57.08;26.17;;;;;;;2.07;100.00;99852.32;1735580;82;21120;-67
2021/12/16 14:53:46;;;;;;;50.80;23.50;;;;;;;2.08;100.00;99845.83;1775845;79;21120;-67
2021/12/16 14:56:18;;;;;;;54.08;25.95;;;;;;;2.09;100.00;99843.38;1773668;79;20992;-67